createdAt,value
2022-12-24T00:02:16.683Z,98.33
2022-12-24T00:05:19.557Z,97.34
2022-12-24T00:09:11.366Z,96.13
2022-12-24T00:12:16.364Z,96.41
2022-12-24T00:15:19.243Z,96.19
2022-12-24T00:18:21.941Z,96.62
2022-12-24T00:21:24.662Z,96.71
2022-12-24T00:24:28.774Z,96.94
2022-12-24T00:27:34.498Z,97.24
2022-12-24T00:30:38.960Z,96.62
2022-12-24T00:33:42.686Z,96.93
2022-12-24T00:36:45.425Z,96.85
2022-12-24T00:39:49.452Z,97.18
2022-12-24T00:42:54.873Z,97.44
2022-12-24T00:46:05.280Z,96.85
2022-12-24T00:49:10.176Z,96.00
2022-12-24T00:52:12.840Z,96.46
2022-12-24T00:55:17.015Z,95.30
2022-12-24T00:58:22.045Z,95.66
2022-12-24T01:01:25.646Z,95.77
2022-12-24T01:04:54.471Z,95.42
2022-12-24T01:07:57.110Z,94.61
2022-12-24T01:11:01.964Z,94.79
2022-12-24T01:14:04.755Z,95.53
2022-12-24T01:17:07.464Z,94.68
2022-12-24T01:20:15.017Z,94.27
2022-12-24T01:23:17.685Z,94.12
2022-12-24T01:26:22.347Z,93.54
2022-12-24T01:29:28.374Z,92.41
2022-12-24T01:32:31.104Z,93.18
2022-12-24T01:35:41.333Z,92.79
2022-12-24T01:38:44.007Z,93.47
2022-12-24T01:42:08.520Z,92.60
2022-12-24T01:45:50.195Z,93.47
2022-12-24T01:48:56.667Z,93.35
2022-12-24T01:52:04.206Z,92.85
2022-12-24T01:55:16.219Z,92.59
2022-12-24T01:58:22.691Z,91.50
2022-12-24T02:01:25.632Z,92.92
2022-12-24T02:04:35.009Z,92.53
2022-12-24T02:07:38.146Z,92.13
2022-12-24T02:10:48.126Z,91.88
2022-12-24T02:13:57.058Z,92.04
2022-12-24T02:17:10.531Z,92.01
2022-12-24T02:20:59.209Z,92.28
2022-12-24T02:24:23.732Z,91.95
2022-12-24T02:27:45.947Z,92.33
2022-12-24T02:30:58.626Z,91.91
2022-12-24T02:34:07.479Z,92.19
2022-12-24T02:37:16.403Z,92.86
2022-12-24T02:40:23.131Z,93.09
2022-12-24T02:43:30.492Z,93.19
2022-12-24T02:46:34.644Z,92.59
2022-12-24T02:49:39.404Z,92.87
2022-12-24T02:52:43.789Z,93.47
2022-12-24T02:55:56.653Z,93.10
2022-12-24T02:59:29.823Z,93.27
2022-12-24T03:02:49.608Z,93.48
2022-12-24T03:05:57.780Z,93.24
2022-12-24T03:09:03.052Z,93.17
2022-12-24T03:12:16.091Z,92.17
2022-12-24T03:15:21.405Z,92.64
2022-12-24T03:18:27.851Z,91.93
2022-12-24T03:21:34.056Z,91.97
2022-12-24T03:24:36.941Z,91.75
2022-12-24T03:27:40.433Z,91.82
2022-12-24T03:30:48.328Z,91.19
2022-12-24T03:33:52.793Z,91.92
2022-12-24T03:36:55.483Z,92.27
2022-12-24T03:40:04.073Z,91.83
2022-12-24T03:43:06.783Z,91.63
2022-12-24T03:46:12.387Z,91.63
2022-12-24T03:49:16.472Z,91.80
2022-12-24T03:52:19.140Z,92.14
2022-12-24T03:55:22.241Z,92.83
2022-12-24T03:58:32.181Z,92.87
2022-12-24T04:01:39.213Z,93.26
2022-12-24T04:04:46.610Z,93.01
2022-12-24T04:07:49.374Z,93.29
2022-12-24T04:10:55.177Z,93.27
2022-12-24T04:13:57.912Z,93.65
2022-12-24T04:17:03.090Z,92.99
2022-12-24T04:20:15.001Z,93.70
2022-12-24T04:23:19.420Z,93.54
2022-12-24T04:26:22.082Z,93.42
2022-12-24T04:29:25.068Z,92.96
2022-12-24T04:32:30.843Z,93.54
2022-12-24T04:35:34.893Z,93.31
2022-12-24T04:38:38.066Z,93.79
2022-12-24T04:41:43.734Z,93.76
2022-12-24T04:44:46.431Z,93.36
2022-12-24T04:47:49.072Z,92.80
2022-12-24T04:50:53.071Z,92.86
2022-12-24T04:53:59.066Z,93.57
2022-12-24T04:57:05.615Z,93.57
2022-12-24T05:00:09.703Z,92.77
2022-12-24T05:03:12.768Z,92.85
2022-12-24T05:06:22.008Z,92.71
2022-12-24T05:09:26.955Z,92.56
2022-12-24T05:12:37.034Z,92.64
2022-12-24T05:15:44.136Z,93.13
2022-12-24T05:18:47.186Z,93.42
2022-12-24T05:22:11.175Z,93.69
2022-12-24T05:25:31.329Z,94.16
2022-12-24T05:28:34.134Z,94.40
2022-12-24T05:31:37.363Z,95.01
2022-12-24T05:34:40.248Z,95.66
2022-12-24T05:37:46.406Z,95.80
2022-12-24T05:40:50.690Z,96.17
2022-12-24T05:43:55.590Z,96.49
2022-12-24T05:46:58.268Z,96.72
2022-12-24T05:50:00.923Z,97.20
2022-12-24T05:53:06.665Z,97.14
2022-12-24T05:56:21.054Z,97.50
2022-12-24T05:59:28.291Z,98.09
2022-12-24T06:02:33.345Z,98.51
2022-12-24T06:05:36.093Z,98.88
2022-12-24T06:08:49.041Z,99.02
2022-12-24T06:11:55.027Z,99.30
2022-12-24T06:14:59.144Z,99.42
2022-12-24T06:18:02.148Z,100.00
2022-12-24T06:21:05.942Z,100.00
2022-12-24T06:24:10.063Z,100.00
2022-12-24T06:27:13.124Z,100.00
2022-12-24T06:30:18.424Z,100.00
2022-12-24T06:33:27.273Z,100.00
2022-12-24T06:36:32.380Z,99.86
2022-12-24T06:39:36.369Z,99.90
2022-12-24T06:42:39.084Z,99.98
2022-12-24T06:45:46.625Z,99.81
2022-12-24T06:48:49.737Z,100.00
2022-12-24T06:51:58.511Z,99.82
2022-12-24T06:55:29.402Z,100.00
2022-12-24T06:58:32.645Z,100.00
2022-12-24T07:01:37.835Z,100.00
2022-12-24T07:04:40.630Z,100.00
2022-12-24T07:07:46.016Z,100.00
2022-12-24T07:10:54.318Z,100.00
2022-12-24T07:14:12.282Z,100.00
2022-12-24T07:17:15.056Z,100.00
2022-12-24T07:20:18.125Z,100.00
2022-12-24T07:23:20.910Z,100.00
2022-12-24T07:26:25.051Z,100.00
2022-12-24T07:29:27.798Z,100.00
2022-12-24T07:32:30.428Z,100.00
2022-12-24T07:35:39.194Z,100.00
2022-12-24T07:38:41.940Z,100.00
2022-12-24T07:42:14.403Z,100.00
2022-12-24T07:45:18.664Z,100.00
2022-12-24T07:48:21.450Z,100.00
2022-12-24T07:51:26.511Z,100.00
2022-12-24T07:54:29.217Z,100.00
2022-12-24T07:57:31.890Z,100.00
2022-12-24T08:00:35.932Z,100.00
2022-12-24T08:03:40.515Z,100.00
2022-12-24T08:06:45.464Z,99.79
2022-12-24T08:09:48.235Z,99.59
2022-12-24T08:12:50.923Z,99.00
2022-12-24T08:15:54.964Z,98.59
2022-12-24T08:18:57.632Z,98.31
2022-12-24T08:22:00.389Z,97.33
2022-12-24T08:25:03.308Z,97.38
2022-12-24T08:28:06.825Z,96.72
2022-12-24T08:31:11.080Z,96.48
2022-12-24T08:34:13.892Z,95.72
2022-12-24T08:37:16.541Z,95.23
2022-12-24T08:40:19.411Z,95.19
2022-12-24T08:43:25.542Z,95.10
2022-12-24T08:46:29.625Z,95.47
2022-12-24T08:49:32.315Z,95.08
2022-12-24T08:52:34.977Z,95.37
2022-12-24T08:55:38.272Z,95.29
2022-12-24T08:58:41.634Z,94.99
2022-12-24T09:01:45.855Z,94.56
2022-12-24T09:04:49.905Z,93.86
2022-12-24T09:07:52.561Z,93.71
2022-12-24T09:10:55.472Z,93.48
2022-12-24T09:13:58.134Z,93.29
2022-12-24T09:17:02.340Z,93.14
2022-12-24T09:20:11.904Z,93.17
2022-12-24T09:23:14.613Z,93.37
2022-12-24T09:26:20.016Z,93.20
2022-12-24T09:29:22.808Z,92.97
2022-12-24T09:32:26.879Z,93.37
2022-12-24T09:35:29.694Z,92.88
2022-12-24T09:38:33.060Z,93.08
2022-12-24T09:41:46.322Z,93.03
2022-12-24T09:44:55.125Z,93.03
2022-12-24T09:48:03.122Z,92.79
2022-12-24T09:51:10.040Z,91.38
2022-12-24T09:54:20.780Z,91.02
2022-12-24T09:57:29.479Z,90.67
2022-12-24T10:00:37.621Z,89.78
2022-12-24T10:03:41.819Z,88.51
2022-12-24T10:06:55.592Z,87.91
2022-12-24T10:10:10.679Z,87.48
2022-12-24T10:13:21.998Z,86.82
2022-12-24T10:16:32.800Z,87.26
2022-12-24T10:19:50.363Z,87.06
2022-12-24T10:23:00.245Z,85.93
2022-12-24T10:26:13.621Z,86.15
2022-12-24T10:29:19.634Z,85.90
2022-12-24T10:32:24.757Z,86.29
2022-12-24T10:35:34.280Z,85.57
2022-12-24T10:38:37.036Z,85.18
2022-12-24T10:41:40.228Z,83.80
2022-12-24T10:44:43.368Z,84.65
2022-12-24T10:47:50.747Z,85.05
2022-12-24T10:50:59.895Z,85.13
2022-12-24T10:54:08.523Z,84.05
2022-12-24T10:57:26.133Z,84.92
2022-12-24T11:00:35.639Z,84.63
2022-12-24T11:03:42.527Z,83.98
2022-12-24T11:06:58.256Z,83.10
2022-12-24T11:10:26.341Z,83.10
2022-12-24T11:13:39.128Z,83.25
2022-12-24T11:16:51.617Z,83.84
2022-12-24T11:19:54.493Z,83.99
2022-12-24T11:22:59.173Z,83.97
2022-12-24T11:26:05.000Z,84.31
2022-12-24T11:29:15.417Z,84.81
2022-12-24T11:32:20.748Z,84.69
2022-12-24T11:35:47.633Z,84.52
2022-12-24T11:39:00.841Z,84.04
2022-12-24T11:42:04.720Z,84.79
2022-12-24T11:45:18.589Z,84.44
2022-12-24T11:48:30.119Z,84.60
2022-12-24T11:51:40.607Z,84.73
2022-12-24T11:55:02.638Z,85.00
2022-12-24T11:58:19.604Z,84.82
2022-12-24T12:01:25.740Z,84.99
2022-12-24T12:04:31.814Z,84.60
2022-12-24T12:07:38.061Z,82.26
2022-12-24T12:10:44.508Z,83.02
2022-12-24T12:13:54.557Z,83.09
2022-12-24T12:17:06.040Z,83.61
2022-12-24T12:20:14.521Z,84.15
2022-12-24T12:23:21.819Z,84.29
2022-12-24T12:26:29.211Z,84.31
2022-12-24T12:29:42.434Z,83.87
2022-12-24T12:32:52.654Z,83.27
2022-12-24T12:36:03.287Z,83.31
2022-12-24T12:39:07.398Z,82.79
2022-12-24T12:42:20.375Z,82.18
2022-12-24T12:45:33.993Z,81.40
2022-12-24T12:48:50.016Z,80.46
2022-12-24T12:52:02.922Z,80.51
2022-12-24T12:55:24.927Z,81.28
2022-12-24T12:58:35.069Z,81.58
2022-12-24T13:01:46.418Z,82.18
2022-12-24T13:05:33.644Z,82.58
2022-12-24T13:09:13.337Z,83.31
2022-12-24T13:12:46.750Z,82.85
2022-12-24T13:16:06.063Z,83.10
2022-12-24T13:19:37.788Z,83.88
2022-12-24T13:22:48.385Z,84.63
2022-12-24T13:25:54.062Z,85.40
2022-12-24T13:29:16.881Z,86.10
2022-12-24T13:32:50.886Z,86.73
2022-12-24T13:36:04.900Z,86.87
2022-12-24T13:39:20.120Z,87.50
2022-12-24T13:42:55.633Z,87.99
2022-12-24T13:45:58.873Z,88.47
2022-12-24T13:49:20.702Z,88.96
2022-12-24T13:52:26.812Z,89.00
2022-12-24T13:55:31.603Z,89.50
2022-12-24T13:58:35.953Z,89.64
2022-12-24T14:01:43.401Z,90.19
2022-12-24T14:05:04.432Z,90.57
2022-12-24T14:08:11.899Z,91.51
2022-12-24T14:11:18.879Z,92.09
2022-12-24T14:14:31.136Z,92.33
2022-12-24T14:17:38.295Z,92.28
2022-12-24T14:20:42.348Z,92.71
2022-12-24T14:23:55.586Z,92.75
2022-12-24T14:27:02.186Z,93.25
2022-12-24T14:30:09.007Z,93.35
2022-12-24T14:33:30.062Z,93.49
2022-12-24T14:36:34.841Z,93.48
2022-12-24T14:39:41.552Z,93.88
2022-12-24T14:42:54.157Z,93.84
2022-12-24T14:46:05.925Z,94.16
2022-12-24T14:49:33.661Z,94.09
2022-12-24T14:53:07.341Z,94.61
2022-12-24T14:56:16.430Z,94.81
2022-12-24T14:59:21.424Z,95.52
2022-12-24T15:02:26.958Z,96.15
2022-12-24T15:05:33.705Z,95.96
2022-12-24T15:08:46.663Z,96.58
2022-12-24T15:12:00.829Z,97.71
2022-12-24T15:15:04.691Z,97.97
2022-12-24T15:18:07.557Z,98.17
2022-12-24T15:21:18.189Z,98.39
2022-12-24T15:24:28.945Z,98.24
2022-12-24T15:27:34.155Z,98.42
2022-12-24T15:30:37.075Z,98.64
2022-12-24T15:33:40.665Z,98.92
2022-12-24T15:36:43.446Z,99.23
2022-12-24T15:39:54.962Z,99.18
2022-12-24T15:42:57.792Z,99.31
2022-12-24T15:46:02.308Z,99.73
2022-12-24T15:49:05.340Z,99.46
2022-12-24T15:52:11.309Z,99.70
2022-12-24T15:55:35.158Z,99.77
2022-12-24T15:58:40.325Z,99.83
2022-12-24T16:01:45.084Z,100.00
2022-12-24T16:04:48.161Z,100.00
2022-12-24T16:08:11.069Z,100.00
2022-12-24T16:11:30.013Z,100.00
2022-12-24T16:14:34.268Z,100.00
2022-12-24T16:17:37.844Z,100.00
2022-12-24T16:20:40.720Z,100.00
2022-12-24T16:23:48.595Z,100.00
2022-12-24T16:26:52.853Z,100.00
2022-12-24T16:29:57.888Z,100.00
2022-12-24T16:33:03.836Z,100.00
2022-12-24T16:36:06.896Z,100.00
2022-12-24T16:39:24.748Z,100.00
2022-12-24T16:42:46.546Z,100.00
2022-12-24T16:45:52.630Z,100.00
2022-12-24T16:48:57.670Z,100.00
2022-12-24T16:52:00.367Z,100.00
2022-12-24T16:55:04.741Z,100.00
2022-12-24T16:58:08.978Z,100.00
2022-12-24T17:01:14.774Z,100.00
2022-12-24T17:04:18.621Z,100.00
2022-12-24T17:07:22.200Z,100.00
2022-12-24T17:10:25.663Z,100.00
2022-12-24T17:13:29.786Z,100.00
2022-12-24T17:16:33.090Z,100.00
2022-12-24T17:19:35.888Z,100.00
2022-12-24T17:22:39.321Z,100.00
2022-12-24T17:25:42.249Z,100.00
2022-12-24T17:28:46.274Z,100.00
2022-12-24T17:31:49.010Z,100.00
2022-12-24T17:34:51.720Z,100.00
2022-12-24T17:37:54.417Z,100.00
2022-12-24T17:41:01.848Z,100.00
2022-12-24T17:44:12.583Z,100.00
2022-12-24T17:47:15.309Z,100.00
2022-12-24T17:50:18.214Z,100.00
2022-12-24T17:53:20.909Z,100.00
2022-12-24T17:56:23.628Z,100.00
2022-12-24T17:59:29.987Z,100.00
2022-12-24T18:02:32.912Z,100.00
2022-12-24T18:05:36.610Z,100.00
2022-12-24T18:08:43.218Z,100.00
2022-12-24T18:11:46.661Z,100.00
2022-12-24T18:14:59.959Z,100.00
2022-12-24T18:18:11.214Z,100.00
2022-12-24T18:21:14.125Z,100.00
2022-12-24T18:24:17.020Z,100.00
2022-12-24T18:27:19.708Z,100.00
2022-12-24T18:30:27.790Z,100.00
2022-12-24T18:33:31.858Z,100.00
2022-12-24T18:36:37.849Z,100.00
2022-12-24T18:39:40.661Z,100.00
2022-12-24T18:42:43.347Z,100.00
2022-12-24T18:45:48.908Z,100.00
2022-12-24T18:48:52.280Z,100.00
2022-12-24T18:52:07.800Z,100.00
2022-12-24T18:55:11.371Z,100.00
2022-12-24T18:58:14.111Z,100.00
2022-12-24T19:01:20.315Z,100.00
2022-12-24T19:04:23.048Z,100.00
2022-12-24T19:07:25.842Z,100.00
2022-12-24T19:10:28.589Z,100.00
2022-12-24T19:13:31.388Z,100.00
2022-12-24T19:16:37.700Z,100.00
2022-12-24T19:19:40.611Z,100.00
2022-12-24T19:22:43.431Z,100.00
2022-12-24T19:25:46.714Z,100.00
2022-12-24T19:28:50.046Z,100.00
2022-12-24T19:31:54.202Z,100.00
2022-12-24T19:34:56.996Z,100.00
2022-12-24T19:37:59.689Z,100.00
2022-12-24T19:41:07.668Z,100.00
2022-12-24T19:44:10.943Z,100.00
2022-12-24T19:47:14.996Z,100.00
2022-12-24T19:50:18.239Z,100.00
2022-12-24T19:53:21.062Z,100.00
2022-12-24T19:56:26.019Z,100.00
2022-12-24T19:59:33.167Z,100.00
2022-12-24T20:02:37.758Z,100.00
2022-12-24T20:05:46.904Z,100.00
2022-12-24T20:08:52.520Z,100.00
2022-12-24T20:11:55.345Z,100.00
2022-12-24T20:14:58.464Z,100.00
2022-12-24T20:18:03.158Z,100.00
2022-12-24T20:21:08.733Z,100.00
2022-12-24T20:24:11.737Z,100.00
2022-12-24T20:27:14.626Z,100.00
2022-12-24T20:30:17.391Z,100.00
2022-12-24T20:33:22.114Z,100.00
2022-12-24T20:36:26.405Z,100.00
2022-12-24T20:39:29.074Z,100.00
2022-12-24T20:42:32.296Z,100.00
2022-12-24T20:45:35.162Z,100.00
2022-12-24T20:48:41.545Z,100.00
2022-12-24T20:51:46.252Z,100.00
2022-12-24T20:54:51.360Z,100.00
2022-12-24T20:57:54.029Z,100.00
2022-12-24T21:00:57.307Z,100.00
2022-12-24T21:04:05.498Z,100.00
2022-12-24T21:07:09.790Z,100.00
2022-12-24T21:10:13.922Z,100.00
2022-12-24T21:13:15.594Z,100.00
2022-12-24T21:16:25.990Z,100.00
2022-12-24T21:19:37.404Z,100.00
2022-12-24T21:22:41.306Z,100.00
2022-12-24T21:25:57.236Z,100.00
2022-12-24T21:29:04.488Z,100.00
2022-12-24T21:32:13.388Z,100.00
2022-12-24T21:35:20.031Z,100.00
2022-12-24T21:38:22.646Z,100.00
2022-12-24T21:41:29.031Z,100.00
2022-12-24T21:44:36.644Z,100.00
2022-12-24T21:47:39.287Z,100.00
2022-12-24T21:50:57.151Z,100.00
2022-12-24T21:54:23.494Z,100.00
2022-12-24T21:57:46.640Z,100.00
2022-12-24T22:00:49.347Z,100.00
2022-12-24T22:03:52.022Z,100.00
2022-12-24T22:07:15.846Z,100.00
2022-12-24T22:10:36.232Z,100.00
2022-12-24T22:13:38.896Z,100.00
2022-12-24T22:16:41.691Z,100.00
2022-12-24T22:19:44.796Z,100.00
2022-12-24T22:22:49.581Z,100.00
2022-12-24T22:25:52.429Z,100.00
2022-12-24T22:28:55.131Z,100.00
2022-12-24T22:31:57.853Z,100.00
2022-12-24T22:35:00.615Z,100.00
2022-12-24T22:38:04.833Z,100.00
2022-12-24T22:41:09.018Z,100.00
2022-12-24T22:44:11.751Z,100.00
2022-12-24T22:47:17.530Z,100.00
2022-12-24T22:50:20.203Z,100.00
2022-12-24T22:53:24.373Z,100.00
2022-12-24T22:56:27.052Z,100.00
2022-12-24T22:59:29.763Z,100.00
2022-12-24T23:02:33.538Z,100.00
2022-12-24T23:05:36.460Z,100.00
2022-12-24T23:08:43.075Z,100.00
2022-12-24T23:11:45.971Z,100.00
2022-12-24T23:14:56.718Z,100.00
2022-12-24T23:17:59.382Z,100.00
2022-12-24T23:21:08.540Z,100.00
2022-12-24T23:24:12.626Z,100.00
2022-12-24T23:27:15.399Z,100.00
2022-12-24T23:30:18.164Z,100.00
2022-12-24T23:33:20.811Z,100.00
2022-12-24T23:36:23.462Z,100.00
2022-12-24T23:39:28.140Z,100.00
2022-12-24T23:42:31.132Z,100.00
2022-12-24T23:45:33.767Z,100.00
2022-12-24T23:48:36.829Z,100.00
2022-12-24T23:51:39.591Z,100.00
2022-12-24T23:54:43.949Z,100.00
2022-12-24T23:57:46.627Z,100.00
